sensor_id;sensor_type;location;lat;lon;timestamp;pressure;altitude;pressure_sealevel;temperature;humidity
69842;BME280;57138;51.326;-0.068;2023-10-09T00:01:49;100433.78;;;15.49;79.51
69842;BME280;57138;51.326;-0.068;2023-10-09T00:04:19;100415.59;;;15.38;80.12
69842;BME280;57138;51.326;-0.068;2023-10-09T00:06:45;100426.78;;;15.41;80.16
69842;BME280;57138;51.326;-0.068;2023-10-09T00:09:15;100418.69;;;15.41;79.91
69842;BME280;57138;51.326;-0.068;2023-10-09T00:11:50;100422.22;;;15.42;80.67
69842;BME280;57138;51.326;-0.068;2023-10-09T00:14:24;100422.81;;;15.44;79.90
69842;BME280;57138;51.326;-0.068;2023-10-09T00:16:51;100413.91;;;15.43;79.56
69842;BME280;57138;51.326;-0.068;2023-10-09T00:19:26;100412.25;;;15.42;79.15
69842;BME280;57138;51.326;-0.068;2023-10-09T00:21:58;100410.63;;;15.41;79.19
69842;BME280;57138;51.326;-0.068;2023-10-09T00:24:33;100402.13;;;15.38;78.70
69842;BME280;57138;51.326;-0.068;2023-10-09T00:26:58;100418.50;;;15.43;78.29
69842;BME280;57138;51.326;-0.068;2023-10-09T00:29:47;100417.66;;;15.42;78.41
69842;BME280;57138;51.326;-0.068;2023-10-09T00:32:16;100425.13;;;15.40;78.50
69842;BME280;57138;51.326;-0.068;2023-10-09T00:34:42;100414.59;;;15.32;77.88
69842;BME280;57138;51.326;-0.068;2023-10-09T00:37:09;100425.94;;;15.48;77.33
69842;BME280;57138;51.326;-0.068;2023-10-09T00:39:52;100427.22;;;15.38;77.82
69842;BME280;57138;51.326;-0.068;2023-10-09T00:42:24;100410.69;;;15.28;77.90
69842;BME280;57138;51.326;-0.068;2023-10-09T00:44:58;100426.59;;;15.36;77.25
69842;BME280;57138;51.326;-0.068;2023-10-09T00:47:33;100413.75;;;15.38;76.61
69842;BME280;57138;51.326;-0.068;2023-10-09T00:50:05;100418.50;;;15.36;76.71
69842;BME280;57138;51.326;-0.068;2023-10-09T00:52:45;100410.06;;;15.26;76.81
69842;BME280;57138;51.326;-0.068;2023-10-09T00:55:18;100416.88;;;15.28;76.68
69842;BME280;57138;51.326;-0.068;2023-10-09T00:58:06;100409.88;;;15.27;76.33
69842;BME280;57138;51.326;-0.068;2023-10-09T01:00:38;100403.47;;;15.22;75.93
69842;BME280;57138;51.326;-0.068;2023-10-09T01:03:18;100399.94;;;15.21;76.53
69842;BME280;57138;51.326;-0.068;2023-10-09T01:06:01;100396.66;;;15.13;75.98
69842;BME280;57138;51.326;-0.068;2023-10-09T01:08:38;100378.31;;;14.96;76.50
69842;BME280;57138;51.326;-0.068;2023-10-09T01:11:19;100375.63;;;14.96;75.94
69842;BME280;57138;51.326;-0.068;2023-10-09T01:13:47;100407.00;;;15.16;75.97
69842;BME280;57138;51.326;-0.068;2023-10-09T01:16:15;100404.56;;;15.07;75.70
69842;BME280;57138;51.326;-0.068;2023-10-09T01:18:45;100411.19;;;15.05;75.99
69842;BME280;57138;51.326;-0.068;2023-10-09T01:21:12;100413.66;;;15.06;75.64
69842;BME280;57138;51.326;-0.068;2023-10-09T01:23:43;100397.16;;;14.96;76.09
69842;BME280;57138;51.326;-0.068;2023-10-09T01:26:32;100406.88;;;14.97;76.94
69842;BME280;57138;51.326;-0.068;2023-10-09T01:29:10;100406.25;;;14.95;77.07
69842;BME280;57138;51.326;-0.068;2023-10-09T01:31:42;100409.81;;;14.89;77.46
69842;BME280;57138;51.326;-0.068;2023-10-09T01:34:18;100399.84;;;14.89;77.62
69842;BME280;57138;51.326;-0.068;2023-10-09T01:36:44;100409.63;;;14.84;77.60
69842;BME280;57138;51.326;-0.068;2023-10-09T01:39:14;100395.94;;;14.79;77.60
69842;BME280;57138;51.326;-0.068;2023-10-09T01:41:50;100411.69;;;14.82;77.91
69842;BME280;57138;51.326;-0.068;2023-10-09T01:44:23;100391.88;;;14.69;78.12
69842;BME280;57138;51.326;-0.068;2023-10-09T01:46:50;100408.38;;;14.80;78.83
69842;BME280;57138;51.326;-0.068;2023-10-09T01:49:24;100399.53;;;14.72;78.99
69842;BME280;57138;51.326;-0.068;2023-10-09T01:52:00;100396.63;;;14.74;79.16
69842;BME280;57138;51.326;-0.068;2023-10-09T01:54:32;100410.47;;;14.78;79.91
69842;BME280;57138;51.326;-0.068;2023-10-09T01:57:08;100408.81;;;14.77;79.98
69842;BME280;57138;51.326;-0.068;2023-10-09T01:59:41;100404.44;;;14.76;80.65
69842;BME280;57138;51.326;-0.068;2023-10-09T02:02:10;100408.81;;;14.77;80.52
69842;BME280;57138;51.326;-0.068;2023-10-09T02:04:56;100405.09;;;14.78;81.31
69842;BME280;57138;51.326;-0.068;2023-10-09T02:07:42;100375.28;;;14.66;81.15
69842;BME280;57138;51.326;-0.068;2023-10-09T02:10:21;100393.94;;;14.74;80.81
69842;BME280;57138;51.326;-0.068;2023-10-09T02:12:56;100392.66;;;14.77;81.39
69842;BME280;57138;51.326;-0.068;2023-10-09T02:15:38;100391.25;;;14.74;81.72
69842;BME280;57138;51.326;-0.068;2023-10-09T02:18:11;100384.41;;;14.71;81.56
69842;BME280;57138;51.326;-0.068;2023-10-09T02:23:38;100372.41;;;14.67;82.37
69842;BME280;57138;51.326;-0.068;2023-10-09T02:26:22;100370.34;;;14.69;81.80
69842;BME280;57138;51.326;-0.068;2023-10-09T02:28:55;100366.19;;;14.67;82.44
69842;BME280;57138;51.326;-0.068;2023-10-09T02:31:25;100357.09;;;14.61;82.57
69842;BME280;57138;51.326;-0.068;2023-10-09T02:34:00;100356.06;;;14.62;82.54
69842;BME280;57138;51.326;-0.068;2023-10-09T02:36:30;100352.53;;;14.68;82.43
69842;BME280;57138;51.326;-0.068;2023-10-09T02:38:55;100340.94;;;14.54;82.92
69842;BME280;57138;51.326;-0.068;2023-10-09T02:41:24;100352.09;;;14.58;82.72
69842;BME280;57138;51.326;-0.068;2023-10-09T02:43:53;100355.47;;;14.60;82.69
69842;BME280;57138;51.326;-0.068;2023-10-09T02:46:21;100342.19;;;14.52;82.84
69842;BME280;57138;51.326;-0.068;2023-10-09T02:48:54;100352.78;;;14.60;83.21
69842;BME280;57138;51.326;-0.068;2023-10-09T02:51:25;100348.19;;;14.54;83.13
69842;BME280;57138;51.326;-0.068;2023-10-09T02:54:11;100341.34;;;14.58;83.16
69842;BME280;57138;51.326;-0.068;2023-10-09T02:57:00;100336.41;;;14.48;83.23
69842;BME280;57138;51.326;-0.068;2023-10-09T02:59:36;100336.81;;;14.52;83.81
69842;BME280;57138;51.326;-0.068;2023-10-09T03:02:10;100337.22;;;14.55;82.87
69842;BME280;57138;51.326;-0.068;2023-10-09T03:04:36;100335.38;;;14.43;83.68
69842;BME280;57138;51.326;-0.068;2023-10-09T03:07:07;100330.00;;;14.43;83.42
69842;BME280;57138;51.326;-0.068;2023-10-09T03:09:32;100336.44;;;14.42;83.60
69842;BME280;57138;51.326;-0.068;2023-10-09T03:12:02;100338.50;;;14.39;83.79
69842;BME280;57138;51.326;-0.068;2023-10-09T03:14:29;100335.59;;;14.41;83.77
69842;BME280;57138;51.326;-0.068;2023-10-09T03:16:58;100330.41;;;14.39;83.78
69842;BME280;57138;51.326;-0.068;2023-10-09T03:19:29;100328.16;;;14.36;84.32
69842;BME280;57138;51.326;-0.068;2023-10-09T03:21:58;100323.19;;;14.33;84.44
69842;BME280;57138;51.326;-0.068;2023-10-09T03:24:25;100326.09;;;14.32;84.20
69842;BME280;57138;51.326;-0.068;2023-10-09T03:26:52;100319.09;;;14.31;84.59
69842;BME280;57138;51.326;-0.068;2023-10-09T03:29:24;100307.91;;;14.27;84.42
69842;BME280;57138;51.326;-0.068;2023-10-09T03:31:50;100315.34;;;14.25;84.55
69842;BME280;57138;51.326;-0.068;2023-10-09T03:34:17;100314.94;;;14.28;84.51
69842;BME280;57138;51.326;-0.068;2023-10-09T03:36:44;100325.09;;;14.26;84.92
69842;BME280;57138;51.326;-0.068;2023-10-09T03:39:09;100320.75;;;14.25;84.68
69842;BME280;57138;51.326;-0.068;2023-10-09T03:41:53;100322.81;;;14.23;84.55
69842;BME280;57138;51.326;-0.068;2023-10-09T03:44:19;100324.44;;;14.24;84.83
69842;BME280;57138;51.326;-0.068;2023-10-09T03:46:45;100336.25;;;14.23;84.73
69842;BME280;57138;51.326;-0.068;2023-10-09T03:49:11;100338.56;;;14.19;84.64
69842;BME280;57138;51.326;-0.068;2023-10-09T03:51:38;100322.44;;;14.19;84.51
69842;BME280;57138;51.326;-0.068;2023-10-09T03:54:05;100330.28;;;14.21;84.59
69842;BME280;57138;51.326;-0.068;2023-10-09T03:56:34;100317.69;;;14.15;84.66
69842;BME280;57138;51.326;-0.068;2023-10-09T03:59:00;100332.72;;;14.23;84.61
69842;BME280;57138;51.326;-0.068;2023-10-09T04:01:26;100320.75;;;14.18;84.28
69842;BME280;57138;51.326;-0.068;2023-10-09T04:04:02;100315.38;;;14.18;84.44
69842;BME280;57138;51.326;-0.068;2023-10-09T04:06:33;100324.91;;;14.21;84.55
69842;BME280;57138;51.326;-0.068;2023-10-09T04:09:03;100321.56;;;14.19;84.51
69842;BME280;57138;51.326;-0.068;2023-10-09T04:12:01;100315.59;;;14.17;84.62
69842;BME280;57138;51.326;-0.068;2023-10-09T04:14:37;100313.75;;;14.11;84.47
69842;BME280;57138;51.326;-0.068;2023-10-09T04:17:13;100325.31;;;14.05;84.84
69842;BME280;57138;51.326;-0.068;2023-10-09T04:19:47;100321.19;;;14.02;84.66
69842;BME280;57138;51.326;-0.068;2023-10-09T04:22:16;100322.44;;;14.06;84.45
69842;BME280;57138;51.326;-0.068;2023-10-09T04:24:51;100339.78;;;14.03;84.31
69842;BME280;57138;51.326;-0.068;2023-10-09T04:27:17;100337.53;;;14.00;84.25
69842;BME280;57138;51.326;-0.068;2023-10-09T04:29:44;100334.22;;;13.98;84.08
69842;BME280;57138;51.326;-0.068;2023-10-09T04:32:14;100319.53;;;13.94;83.41
69842;BME280;57138;51.326;-0.068;2023-10-09T04:34:45;100338.56;;;13.93;83.70
69842;BME280;57138;51.326;-0.068;2023-10-09T04:37:15;100338.56;;;13.93;83.95
69842;BME280;57138;51.326;-0.068;2023-10-09T04:39:43;100347.25;;;13.88;84.15
69842;BME280;57138;51.326;-0.068;2023-10-09T04:42:15;100340.84;;;13.89;83.60
69842;BME280;57138;51.326;-0.068;2023-10-09T04:44:50;100330.94;;;13.83;83.57
69842;BME280;57138;51.326;-0.068;2023-10-09T04:47:43;100332.78;;;13.76;83.64
69842;BME280;57138;51.326;-0.068;2023-10-09T04:50:15;100337.94;;;13.77;83.60
69842;BME280;57138;51.326;-0.068;2023-10-09T04:52:47;100342.91;;;13.74;83.61
69842;BME280;57138;51.326;-0.068;2023-10-09T04:55:15;100336.06;;;13.71;83.33
69842;BME280;57138;51.326;-0.068;2023-10-09T04:57:47;100335.25;;;13.71;83.28
69842;BME280;57138;51.326;-0.068;2023-10-09T05:00:26;100329.88;;;13.71;83.06
69842;BME280;57138;51.326;-0.068;2023-10-09T05:02:56;100327.81;;;13.73;82.97
69842;BME280;57138;51.326;-0.068;2023-10-09T05:05:23;100319.97;;;13.71;82.94
69842;BME280;57138;51.326;-0.068;2023-10-09T05:08:03;100310.03;;;13.58;83.28
69842;BME280;57138;51.326;-0.068;2023-10-09T05:13:30;100331.56;;;13.72;82.24
69842;BME280;57138;51.326;-0.068;2023-10-09T05:18:52;100338.56;;;13.73;82.64
69842;BME280;57138;51.326;-0.068;2023-10-09T05:21:34;100333.59;;;13.70;82.57
69842;BME280;57138;51.326;-0.068;2023-10-09T05:24:01;100324.94;;;13.54;82.70
69842;BME280;57138;51.326;-0.068;2023-10-09T05:26:53;100335.88;;;13.59;82.37
69842;BME280;57138;51.326;-0.068;2023-10-09T05:29:24;100342.28;;;13.58;82.39
69842;BME280;57138;51.326;-0.068;2023-10-09T05:32:03;100333.41;;;13.51;82.83
69842;BME280;57138;51.326;-0.068;2023-10-09T05:34:43;100326.16;;;13.52;82.71
69842;BME280;57138;51.326;-0.068;2023-10-09T05:37:29;100340.22;;;13.47;82.42
69842;BME280;57138;51.326;-0.068;2023-10-09T05:40:00;100349.94;;;13.48;82.67
69842;BME280;57138;51.326;-0.068;2023-10-09T05:42:33;100358.41;;;13.52;82.18
69842;BME280;57138;51.326;-0.068;2023-10-09T05:45:12;100361.69;;;13.47;82.08
69842;BME280;57138;51.326;-0.068;2023-10-09T05:47:57;100359.63;;;13.42;82.12
69842;BME280;57138;51.326;-0.068;2023-10-09T05:50:51;100366.63;;;13.37;81.84
69842;BME280;57138;51.326;-0.068;2023-10-09T05:53:35;100357.97;;;13.41;81.51
69842;BME280;57138;51.326;-0.068;2023-10-09T05:56:10;100367.88;;;13.41;81.44
69842;BME280;57138;51.326;-0.068;2023-10-09T05:58:54;100356.72;;;13.44;81.18
69842;BME280;57138;51.326;-0.068;2023-10-09T06:01:31;100385.66;;;13.42;81.01
69842;BME280;57138;51.326;-0.068;2023-10-09T06:04:15;100367.47;;;13.44;80.87
69842;BME280;57138;51.326;-0.068;2023-10-09T06:06:44;100353.44;;;13.42;81.33
69842;BME280;57138;51.326;-0.068;2023-10-09T06:09:14;100348.47;;;13.45;81.35
69842;BME280;57138;51.326;-0.068;2023-10-09T06:11:40;100358.41;;;13.45;80.73
69842;BME280;57138;51.326;-0.068;2023-10-09T06:14:08;100368.28;;;13.44;80.68
69842;BME280;57138;51.326;-0.068;2023-10-09T06:16:34;100371.59;;;13.40;81.12
69842;BME280;57138;51.326;-0.068;2023-10-09T06:19:20;100370.78;;;13.46;81.19
69842;BME280;57138;51.326;-0.068;2023-10-09T06:21:56;100347.66;;;13.45;81.52
69842;BME280;57138;51.326;-0.068;2023-10-09T06:24:30;100347.22;;;13.41;81.29
69842;BME280;57138;51.326;-0.068;2023-10-09T07:19:51;100409.69;;;14.30;82.25
69842;BME280;57138;51.326;-0.068;2023-10-09T07:22:20;100398.09;;;14.36;82.19
69842;BME280;57138;51.326;-0.068;2023-10-09T07:24:51;100420.84;;;14.54;82.06
69842;BME280;57138;51.326;-0.068;2023-10-09T07:27:32;100411.97;;;14.60;82.13
69842;BME280;57138;51.326;-0.068;2023-10-09T07:30:15;100386.50;;;14.69;82.06
69842;BME280;57138;51.326;-0.068;2023-10-09T07:33:05;100390.16;;;14.82;81.82
69842;BME280;57138;51.326;-0.068;2023-10-09T07:35:46;100409.97;;;15.01;81.17
69842;BME280;57138;51.326;-0.068;2023-10-09T07:38:18;100398.53;;;15.12;80.86
69842;BME280;57138;51.326;-0.068;2023-10-09T07:41:03;100388.13;;;15.22;80.79
69842;BME280;57138;51.326;-0.068;2023-10-09T07:43:33;100371.75;;;15.24;80.86
69842;BME280;57138;51.326;-0.068;2023-10-09T07:46:05;100384.97;;;15.32;80.05
69842;BME280;57138;51.326;-0.068;2023-10-09T07:48:33;100386.59;;;15.40;80.07
69842;BME280;57138;51.326;-0.068;2023-10-09T07:51:14;100388.44;;;15.39;80.70
69842;BME280;57138;51.326;-0.068;2023-10-09T07:53:44;100384.72;;;15.40;80.52
69842;BME280;57138;51.326;-0.068;2023-10-09T07:56:13;100386.53;;;15.46;80.39
69842;BME280;57138;51.326;-0.068;2023-10-09T07:58:49;100381.81;;;15.42;79.95
69842;BME280;57138;51.326;-0.068;2023-10-09T08:01:17;100396.22;;;15.54;79.92
69842;BME280;57138;51.326;-0.068;2023-10-09T08:04:00;100406.78;;;15.56;79.96
69842;BME280;57138;51.326;-0.068;2023-10-09T08:06:46;100414.25;;;15.60;79.63
69842;BME280;57138;51.326;-0.068;2023-10-09T08:09:15;100417.53;;;15.62;79.89
69842;BME280;57138;51.326;-0.068;2023-10-09T08:11:43;100421.66;;;15.65;80.37
69842;BME280;57138;51.326;-0.068;2023-10-09T08:14:09;100425.53;;;15.76;80.26
69842;BME280;57138;51.326;-0.068;2023-10-09T08:16:50;100414.19;;;15.67;80.52
69842;BME280;57138;51.326;-0.068;2023-10-09T08:19:31;100433.59;;;15.82;80.62
69842;BME280;57138;51.326;-0.068;2023-10-09T08:22:17;100449.78;;;15.82;80.86
69842;BME280;57138;51.326;-0.068;2023-10-09T08:25:03;100457.44;;;15.86;80.45
69842;BME280;57138;51.326;-0.068;2023-10-09T08:27:29;100461.81;;;15.87;79.97
69842;BME280;57138;51.326;-0.068;2023-10-09T08:30:04;100449.28;;;15.92;79.99
69842;BME280;57138;51.326;-0.068;2023-10-09T08:32:51;100460.94;;;15.86;80.01
69842;BME280;57138;51.326;-0.068;2023-10-09T08:35:30;100450.38;;;15.85;80.00
69842;BME280;57138;51.326;-0.068;2023-10-09T08:37:57;100453.72;;;15.87;79.64
69842;BME280;57138;51.326;-0.068;2023-10-09T08:40:34;100453.94;;;15.85;79.64
69842;BME280;57138;51.326;-0.068;2023-10-09T08:43:13;100469.44;;;15.90;79.47
69842;BME280;57138;51.326;-0.068;2023-10-09T08:45:40;100470.06;;;15.92;79.77
69842;BME280;57138;51.326;-0.068;2023-10-09T08:48:09;100465.09;;;15.89;79.58
69842;BME280;57138;51.326;-0.068;2023-10-09T08:50:41;100443.34;;;15.84;79.32
69842;BME280;57138;51.326;-0.068;2023-10-09T08:53:10;100436.16;;;16.03;79.48
69842;BME280;57138;51.326;-0.068;2023-10-09T08:55:39;100443.31;;;16.15;79.47
69842;BME280;57138;51.326;-0.068;2023-10-09T08:58:05;100428.34;;;16.20;78.82
69842;BME280;57138;51.326;-0.068;2023-10-09T09:00:39;100416.34;;;16.15;78.19
69842;BME280;57138;51.326;-0.068;2023-10-09T09:03:11;100424.56;;;16.27;77.80
69842;BME280;57138;51.326;-0.068;2023-10-09T09:05:37;100426.59;;;16.32;77.88
69842;BME280;57138;51.326;-0.068;2023-10-09T09:08:03;100444.16;;;16.41;77.76
69842;BME280;57138;51.326;-0.068;2023-10-09T09:10:32;100461.38;;;16.40;77.64
69842;BME280;57138;51.326;-0.068;2023-10-09T09:13:14;100453.13;;;16.35;77.40
69842;BME280;57138;51.326;-0.068;2023-10-09T09:15:47;100426.75;;;16.37;78.03
69842;BME280;57138;51.326;-0.068;2023-10-09T09:18:12;100406.88;;;16.31;78.20
69842;BME280;57138;51.326;-0.068;2023-10-09T09:20:43;100423.97;;;16.44;78.68
69842;BME280;57138;51.326;-0.068;2023-10-09T09:23:12;100425.03;;;16.43;78.24
69842;BME280;57138;51.326;-0.068;2023-10-09T09:25:47;100426.00;;;16.48;77.94
69842;BME280;57138;51.326;-0.068;2023-10-09T09:28:16;100439.06;;;16.51;78.18
69842;BME280;57138;51.326;-0.068;2023-10-09T09:30:52;100432.09;;;16.62;77.91
69842;BME280;57138;51.326;-0.068;2023-10-09T09:33:23;100447.81;;;16.72;77.84
69842;BME280;57138;51.326;-0.068;2023-10-09T09:36:24;100444.00;;;16.80;78.09
69842;BME280;57138;51.326;-0.068;2023-10-09T09:38:54;100443.03;;;16.93;77.45
69842;BME280;57138;51.326;-0.068;2023-10-09T09:41:31;100426.66;;;17.06;77.04
69842;BME280;57138;51.326;-0.068;2023-10-09T09:43:59;100420.97;;;17.14;76.57
69842;BME280;57138;51.326;-0.068;2023-10-09T09:46:32;100428.91;;;17.28;76.30
69842;BME280;57138;51.326;-0.068;2023-10-09T09:49:06;100419.16;;;17.27;76.34
69842;BME280;57138;51.326;-0.068;2023-10-09T09:51:42;100428.59;;;17.36;76.46
69842;BME280;57138;51.326;-0.068;2023-10-09T09:54:12;100437.16;;;17.33;76.18
69842;BME280;57138;51.326;-0.068;2023-10-09T09:56:45;100461.16;;;17.41;75.84
69842;BME280;57138;51.326;-0.068;2023-10-09T09:59:17;100432.22;;;17.30;75.96
69842;BME280;57138;51.326;-0.068;2023-10-09T10:01:49;100408.72;;;17.30;75.56
69842;BME280;57138;51.326;-0.068;2023-10-09T10:04:50;100413.44;;;17.35;75.41
69842;BME280;57138;51.326;-0.068;2023-10-09T10:07:17;100414.44;;;17.52;75.19
69842;BME280;57138;51.326;-0.068;2023-10-09T10:09:46;100409.03;;;17.52;75.31
69842;BME280;57138;51.326;-0.068;2023-10-09T10:12:15;100444.91;;;17.59;75.52
69842;BME280;57138;51.326;-0.068;2023-10-09T10:15:03;100461.38;;;17.70;75.09
69842;BME280;57138;51.326;-0.068;2023-10-09T10:20:26;100412.13;;;17.68;74.46
69842;BME280;57138;51.326;-0.068;2023-10-09T10:23:17;100442.09;;;17.96;73.79
69842;BME280;57138;51.326;-0.068;2023-10-09T10:25:44;100430.09;;;18.04;73.84
69842;BME280;57138;51.326;-0.068;2023-10-09T10:28:21;100416.94;;;18.08;72.82
69842;BME280;57138;51.326;-0.068;2023-10-09T10:31:05;100418.13;;;18.12;73.62
69842;BME280;57138;51.326;-0.068;2023-10-09T10:36:26;100436.72;;;18.32;73.71
69842;BME280;57138;51.326;-0.068;2023-10-09T10:39:06;100436.63;;;18.39;74.10
69842;BME280;57138;51.326;-0.068;2023-10-09T10:41:55;100441.81;;;18.40;73.41
69842;BME280;57138;51.326;-0.068;2023-10-09T10:44:33;100427.78;;;18.55;73.15
69842;BME280;57138;51.326;-0.068;2023-10-09T10:47:03;100417.66;;;18.62;72.88
69842;BME280;57138;51.326;-0.068;2023-10-09T10:49:30;100418.34;;;18.69;72.60
69842;BME280;57138;51.326;-0.068;2023-10-09T10:52:06;100425.66;;;18.81;72.22
69842;BME280;57138;51.326;-0.068;2023-10-09T10:54:45;100416.44;;;18.82;72.66
69842;BME280;57138;51.326;-0.068;2023-10-09T10:57:16;100410.56;;;18.97;71.25
69842;BME280;57138;51.326;-0.068;2023-10-09T11:00:10;100409.50;;;18.98;70.74
69842;BME280;57138;51.326;-0.068;2023-10-09T11:02:55;100405.00;;;19.03;70.24
69842;BME280;57138;51.326;-0.068;2023-10-09T11:05:41;100407.94;;;19.14;71.02
69842;BME280;57138;51.326;-0.068;2023-10-09T11:08:11;100410.94;;;19.29;71.12
69842;BME280;57138;51.326;-0.068;2023-10-09T11:10:38;100403.38;;;19.31;71.30
69842;BME280;57138;51.326;-0.068;2023-10-09T11:13:26;100390.41;;;19.33;70.17
69842;BME280;57138;51.326;-0.068;2023-10-09T11:16:18;100415.97;;;19.37;69.55
69842;BME280;57138;51.326;-0.068;2023-10-09T11:19:14;100414.84;;;19.50;68.58
69842;BME280;57138;51.326;-0.068;2023-10-09T11:21:54;100411.09;;;19.51;69.21
69842;BME280;57138;51.326;-0.068;2023-10-09T11:24:35;100386.84;;;19.45;68.69
69842;BME280;57138;51.326;-0.068;2023-10-09T11:27:05;100395.22;;;19.60;68.85
69842;BME280;57138;51.326;-0.068;2023-10-09T11:29:36;100388.25;;;19.64;68.59
69842;BME280;57138;51.326;-0.068;2023-10-09T11:32:20;100400.03;;;19.70;68.45
69842;BME280;57138;51.326;-0.068;2023-10-09T11:37:34;100399.41;;;19.80;68.94
69842;BME280;57138;51.326;-0.068;2023-10-09T11:40:30;100405.00;;;19.90;68.11
69842;BME280;57138;51.326;-0.068;2023-10-09T11:43:19;100408.59;;;19.96;69.21
69842;BME280;57138;51.326;-0.068;2023-10-09T11:46:11;100406.38;;;20.09;69.32
69842;BME280;57138;51.326;-0.068;2023-10-09T11:48:39;100394.78;;;20.14;68.13
69842;BME280;57138;51.326;-0.068;2023-10-09T11:51:37;100393.00;;;20.20;68.81
69842;BME280;57138;51.326;-0.068;2023-10-09T11:54:29;100385.81;;;20.31;68.07
69842;BME280;57138;51.326;-0.068;2023-10-09T11:56:55;100382.91;;;20.37;67.36
69842;BME280;57138;51.326;-0.068;2023-10-09T11:59:21;100384.69;;;20.48;67.84
69842;BME280;57138;51.326;-0.068;2023-10-09T12:01:49;100385.09;;;20.57;67.99
69842;BME280;57138;51.326;-0.068;2023-10-09T12:04:21;100386.66;;;20.70;66.36
69842;BME280;57138;51.326;-0.068;2023-10-09T12:06:59;100385.91;;;20.75;65.33
69842;BME280;57138;51.326;-0.068;2023-10-09T12:09:39;100358.09;;;20.68;64.80
69842;BME280;57138;51.326;-0.068;2023-10-09T12:12:07;100386.78;;;20.80;65.08
69842;BME280;57138;51.326;-0.068;2023-10-09T12:14:34;100377.88;;;20.85;64.16
69842;BME280;57138;51.326;-0.068;2023-10-09T12:17:10;100364.03;;;20.87;63.00
69842;BME280;57138;51.326;-0.068;2023-10-09T12:19:37;100371.25;;;20.98;63.23
69842;BME280;57138;51.326;-0.068;2023-10-09T12:22:06;100372.22;;;21.14;63.13
69842;BME280;57138;51.326;-0.068;2023-10-09T12:24:33;100371.88;;;21.32;62.79
69842;BME280;57138;51.326;-0.068;2023-10-09T12:26:59;100368.66;;;21.35;63.74
69842;BME280;57138;51.326;-0.068;2023-10-09T12:29:26;100363.25;;;21.41;62.51
69842;BME280;57138;51.326;-0.068;2023-10-09T12:32:01;100365.78;;;21.47;61.28
69842;BME280;57138;51.326;-0.068;2023-10-09T12:34:31;100360.94;;;21.49;61.23
69842;BME280;57138;51.326;-0.068;2023-10-09T12:36:57;100360.72;;;21.56;60.64
69842;BME280;57138;51.326;-0.068;2023-10-09T12:39:27;100357.22;;;21.61;60.29
69842;BME280;57138;51.326;-0.068;2023-10-09T12:42:02;100353.19;;;21.68;59.56
69842;BME280;57138;51.326;-0.068;2023-10-09T12:44:37;100345.03;;;21.68;59.39
69842;BME280;57138;51.326;-0.068;2023-10-09T12:47:06;100339.84;;;21.67;59.39
69842;BME280;57138;51.326;-0.068;2023-10-09T12:49:31;100334.69;;;21.70;58.81
69842;BME280;57138;51.326;-0.068;2023-10-09T12:51:58;100339.94;;;21.77;58.42
69842;BME280;57138;51.326;-0.068;2023-10-09T12:54:27;100330.16;;;21.81;58.75
69842;BME280;57138;51.326;-0.068;2023-10-09T12:56:54;100330.78;;;21.94;59.50
69842;BME280;57138;51.326;-0.068;2023-10-09T12:59:24;100316.66;;;21.97;59.14
69842;BME280;57138;51.326;-0.068;2023-10-09T13:01:53;100306.38;;;22.04;58.20
69842;BME280;57138;51.326;-0.068;2023-10-09T13:04:23;100307.00;;;22.16;57.78
69842;BME280;57138;51.326;-0.068;2023-10-09T13:06:48;100309.22;;;22.30;57.94
69842;BME280;57138;51.326;-0.068;2023-10-09T13:09:19;100303.88;;;22.40;58.82
69842;BME280;57138;51.326;-0.068;2023-10-09T13:11:58;100310.72;;;22.53;57.67
69842;BME280;57138;51.326;-0.068;2023-10-09T13:14:31;100301.50;;;22.59;57.25
69842;BME280;57138;51.326;-0.068;2023-10-09T13:16:59;100284.06;;;22.55;57.44
69842;BME280;57138;51.326;-0.068;2023-10-09T13:19:24;100275.56;;;22.51;56.11
69842;BME280;57138;51.326;-0.068;2023-10-09T13:21:50;100293.31;;;22.59;55.32
69842;BME280;57138;51.326;-0.068;2023-10-09T13:24:16;100312.69;;;22.63;56.25
69842;BME280;57138;51.326;-0.068;2023-10-09T13:26:45;100278.03;;;22.53;56.68
69842;BME280;57138;51.326;-0.068;2023-10-09T13:29:12;100314.09;;;22.75;57.19
69842;BME280;57138;51.326;-0.068;2023-10-09T13:31:47;100319.03;;;22.78;57.09
69842;BME280;57138;51.326;-0.068;2023-10-09T13:34:24;100326.34;;;22.78;57.59
69842;BME280;57138;51.326;-0.068;2023-10-09T13:36:56;100295.78;;;22.55;57.40
69842;BME280;57138;51.326;-0.068;2023-10-09T13:39:24;100323.03;;;22.66;58.61
69842;BME280;57138;51.326;-0.068;2023-10-09T13:41:55;100293.03;;;22.50;57.72
69842;BME280;57138;51.326;-0.068;2023-10-09T13:44:28;100335.66;;;22.77;56.95
69842;BME280;57138;51.326;-0.068;2023-10-09T13:46:58;100318.16;;;22.73;56.85
69842;BME280;57138;51.326;-0.068;2023-10-09T13:49:24;100329.88;;;22.73;56.61
69842;BME280;57138;51.326;-0.068;2023-10-09T13:52:02;100303.94;;;22.60;57.61
69842;BME280;57138;51.326;-0.068;2023-10-09T13:54:30;100310.19;;;22.56;58.79
69842;BME280;57138;51.326;-0.068;2023-10-09T13:57:03;100309.66;;;22.54;58.80
69842;BME280;57138;51.326;-0.068;2023-10-09T13:59:30;100302.28;;;22.54;58.81
69842;BME280;57138;51.326;-0.068;2023-10-09T14:01:58;100307.19;;;22.52;59.14
69842;BME280;57138;51.326;-0.068;2023-10-09T14:04:25;100306.66;;;22.50;58.97
69842;BME280;57138;51.326;-0.068;2023-10-09T14:06:54;100311.00;;;22.51;58.65
69842;BME280;57138;51.326;-0.068;2023-10-09T14:09:24;100313.19;;;22.49;57.91
69842;BME280;57138;51.326;-0.068;2023-10-09T14:12:04;100304.94;;;22.39;57.99
69842;BME280;57138;51.326;-0.068;2023-10-09T14:14:43;100303.31;;;22.38;58.25
69842;BME280;57138;51.326;-0.068;2023-10-09T14:17:19;100297.84;;;22.33;58.39
69842;BME280;57138;51.326;-0.068;2023-10-09T14:19:48;100281.38;;;22.17;58.73
69842;BME280;57138;51.326;-0.068;2023-10-09T14:22:19;100286.88;;;22.22;59.22
69842;BME280;57138;51.326;-0.068;2023-10-09T14:24:46;100297.25;;;22.25;58.96